Santa Ana, CA

3:11 AM PDT on July 28, 2017 (GMT -0700)
John Wayne-Orange County | | Change Station
Active Advisory: Beach Hazard Statement

Elev 52 ft 33.68 °N, 117.87 °W | Updated 18 minutes ago

Overcast
Overcast
67 °F
Feels Like 67 °F
N
0
Wind Variable Wind from North

Today
High -- | Low -- °F
--% Chance of Precip.
Yesterday
High -- | Low -- °F
Precip. -- in
Pressure 29.91 in
Visibility 10.0 miles
Clouds Overcast 900 ft
Dew Point 63 °F
Humidity 87%
Rainfall 0.00 in
Snow Depth Not available.
6:01 AM 7:54 PM
Waxing Crescent, 29% visible
METAR KSNA 280953Z AUTO 00000KT 10SM OVC009 19/17 A2991 RMK AO2 SLP126 T01940172
Pressure 29.91 in
Visibility 10.0 miles
Clouds Overcast 900 ft
Dew Point 63 °F
Humidity 87%
Rainfall 0.00 in
Snow Depth Not available.
6:01 AM 7:54 PM
Waxing Crescent, 29% visible
METAR KSNA 280953Z AUTO 00000KT 10SM OVC009 19/17 A2991 RMK AO2 SLP126 T01940172

Get Your Daily Forecast Email!

Thanks for signing up!

Be on the lookout for a verification email in your inbox.

You'll start receiving severe weather alerts in your inbox..

×

10-Day Weather Forecast

Almanac

Astronomy

Jul. 28, 2017 Rise Set
Actual Time
Civil Twilight
Nautical Twilight
Astronomical Twilight
Moon
Length of Visible Light
Length of Day
Tomorrow will be .
, % of the Moon is Illuminated

Today's Extremes

State Highs State Lows

Community

WunderPhotos

Category 6

Welcome to Category 6. This is the collective home for Weather Underground's featured writeups by Dr. Jeff Masters (right), Bob Henson (left), Chris Burt, and other regular contributors.

Nearby

Air Quality

  Air Quality AQ Index Pollutant
Not available.

Snow Depth

Station Depth Elevation

Earthquake Activity

City Distance Mag. Time & Date
Minimum magnitude displayed is 2.5.

Coastal Water Temperatures

Place Temperature

Stations

Nearby Weather Stations

Station Location Temp. Windchill Dew Point Humidity Wind Precip. Elev Updated Type
                   

Watches & Warnings

Beach Hazard Statement
Issued: 8:32 PM PDT Jul. 27, 2017 – National Weather Service

... Beach hazards statement remains in effect from Saturday
morning through Tuesday evening...

* surf heights... 5 to 7 feet with sets to 9 feet.

* Swells... a moderate period south swell of 5 feet from 180 to
190 degrees along with a long period south swell of 2 to 3
feet from 180 degrees.

* Locations... highest surf likely along Orange County beaches
and north of Carlsbad in San Diego County.

* Timing... surf forecast to build late Friday through early
Saturday... peaking late Saturday through Tuesday... then
gradually lowering on Wednesday.

* Impacts... dangerous swimming conditions due to large waves and
strong rip and longshore currents. Large breaking waves
possibly over-topping jetties.

Precautionary/preparedness actions...

A beach hazards statement is issued when threats such as rip
currents and other hazards are possible. Caution should be used
when in or near the water.